LVLHI SANT-ZZZZ
Flight info
| Callsign | LVLHI |
|---|---|
| Flight time | N/A |
| Altitude | 2500 |
| Route | DCT |
| Aircraft | C182/L-SDGRY/S |
Departure
| Time | 2026-05-07 19:09 |
|---|---|
| Airport | Teniente Benjamín Matienzo International Airport (SANT) |
Arrival
| Time | N/A |
|---|---|
| Airport | ZZZZ |
| Time | Latitude | Longitude | Altitude | Speed | Heading |
|---|---|---|---|---|---|
| 2026-05-07 18:54 | -26.83622 | -65.10730 | 1473 ft | 0 kts | 192° |
| 2026-05-07 18:56 | -26.83621 | -65.10730 | 1473 ft | 0 kts | 186° |
| 2026-05-07 18:56 | -26.83623 | -65.10731 | 1473 ft | 2 kts | 189° |
| 2026-05-07 18:57 | -26.83617 | -65.10731 | 1473 ft | 3 kts | 174° |
| 2026-05-07 18:57 | -26.83615 | -65.10732 | 1474 ft | 2 kts | 133° |
| 2026-05-07 18:57 | -26.83636 | -65.10722 | 1471 ft | 6 kts | 180° |
| 2026-05-07 18:57 | -26.83706 | -65.10726 | 1470 ft | 14 kts | 184° |
| 2026-05-07 18:58 | -26.83821 | -65.10697 | 1466 ft | 20 kts | 159° |
| 2026-05-07 18:58 | -26.83966 | -65.10634 | 1467 ft | 25 kts | 158° |
| 2026-05-07 18:58 | -26.84129 | -65.10566 | 1464 ft | 24 kts | 162° |
| 2026-05-07 18:58 | -26.84170 | -65.10502 | 1463 ft | 8 kts | 24° |
| 2026-05-07 18:59 | -26.84134 | -65.10487 | 1461 ft | 0 kts | 10° |
| 2026-05-07 18:59 | -26.84130 | -65.10486 | 1462 ft | 9 kts | 10° |
| 2026-05-07 18:59 | -26.83738 | -65.10416 | 1483 ft | 96 kts | 1° |
| 2026-05-07 18:59 | -26.83285 | -65.10894 | 1559 ft | 118 kts | 242° |
| 2026-05-07 19:00 | -26.83550 | -65.11054 | 1473 ft | 16 kts | 332° |
| 2026-05-07 19:00 | -26.83538 | -65.11065 | 1473 ft | 0 kts | 275° |
| 2026-05-07 19:01 | -26.83623 | -65.10731 | 1473 ft | 0 kts | 192° |
| 2026-05-07 19:06 | -26.83688 | -65.10717 | 1465 ft | 11 kts | 176° |
| 2026-05-07 19:06 | -26.83822 | -65.10696 | 1462 ft | 10 kts | 160° |
| 2026-05-07 19:06 | -26.83889 | -65.10670 | 1468 ft | 11 kts | 161° |
| 2026-05-07 19:07 | -26.83966 | -65.10640 | 1467 ft | 12 kts | 161° |
| 2026-05-07 19:07 | -26.84062 | -65.10596 | 1465 ft | 19 kts | 158° |
| 2026-05-07 19:07 | -26.84195 | -65.10532 | 1463 ft | 21 kts | 95° |
| 2026-05-07 19:07 | -26.84103 | -65.10482 | 1465 ft | 2 kts | 10° |
| 2026-05-07 19:08 | -26.83972 | -65.10459 | 1464 ft | 55 kts | 7° |
| 2026-05-07 19:08 | -26.83421 | -65.10372 | 1515 ft | 99 kts | 6° |
| 2026-05-07 19:08 | -26.82700 | -65.10224 | 1704 ft | 107 kts | 7° |
| 2026-05-07 19:09 | -26.82214 | -65.10144 | 1981 ft | 100 kts | 360° |
| 2026-05-07 19:09 | -26.81560 | -65.10757 | 2322 ft | 104 kts | 285° |
| 2026-05-07 19:09 | -26.81528 | -65.11538 | 2603 ft | 94 kts | 253° |
| 2026-05-07 19:09 | -26.81754 | -65.11962 | 2754 ft | 100 kts | 222° |
| 2026-05-07 19:10 | -26.82484 | -65.11876 | 2893 ft | 109 kts | 164° |
| 2026-05-07 19:10 | -26.82995 | -65.12265 | 2718 ft | 128 kts | 262° |
| 2026-05-07 19:10 | -26.82909 | -65.13268 | 2834 ft | 122 kts | 278° |
| 2026-05-07 19:10 | -26.82800 | -65.14132 | 3135 ft | 114 kts | 265° |
| 2026-05-07 19:11 | -26.82735 | -65.15037 | 3267 ft | 119 kts | 275° |
| 2026-05-07 19:11 | -26.82587 | -65.15988 | 3280 ft | 129 kts | 270° |
| 2026-05-07 19:11 | -26.82724 | -65.17011 | 3080 ft | 139 kts | 256° |
| 2026-05-07 19:11 | -26.82705 | -65.18120 | 2873 ft | 147 kts | 275° |
| 2026-05-07 19:12 | -26.82492 | -65.19257 | 2713 ft | 147 kts | 276° |
| 2026-05-07 19:12 | -26.82362 | -65.20366 | 2707 ft | 137 kts | 268° |
| 2026-05-07 19:12 | -26.82292 | -65.21426 | 2666 ft | 138 kts | 273° |
| 2026-05-07 19:12 | -26.82100 | -65.22495 | 2577 ft | 140 kts | 278° |
| 2026-05-07 19:13 | -26.81917 | -65.23584 | 2413 ft | 144 kts | 277° |
| 2026-05-07 19:13 | -26.81725 | -65.24662 | 2396 ft | 145 kts | 276° |
| 2026-05-07 19:13 | -26.81612 | -65.25804 | 2190 ft | 147 kts | 270° |
| 2026-05-07 19:13 | -26.81433 | -65.26883 | 2029 ft | 152 kts | 311° |
| 2026-05-07 19:14 | -26.80457 | -65.27362 | 1803 ft | 145 kts | 326° |
| 2026-05-07 19:14 | -26.80099 | -65.28324 | 1828 ft | 136 kts | 279° |
| 2026-05-07 19:14 | -26.79912 | -65.29381 | 1835 ft | 139 kts | 276° |
| 2026-05-07 19:14 | -26.79684 | -65.30407 | 1843 ft | 134 kts | 278° |
| 2026-05-07 19:15 | -26.79530 | -65.31400 | 1971 ft | 124 kts | 275° |
| 2026-05-07 19:15 | -26.79044 | -65.31399 | 2193 ft | 131 kts | 89° |
| 2026-05-07 19:15 | -26.79148 | -65.30373 | 2211 ft | 138 kts | 98° |
| 2026-05-07 19:15 | -26.79724 | -65.29687 | 1877 ft | 138 kts | 184° |
| 2026-05-07 19:16 | -26.80387 | -65.29770 | 2274 ft | 119 kts | 279° |
| 2026-05-07 19:16 | -26.79622 | -65.29616 | 1784 ft | 146 kts | 11° |
| 2026-05-07 19:16 | -26.78925 | -65.29259 | 2227 ft | 107 kts | 327° |
| 2026-05-07 19:16 | -26.79338 | -65.29674 | 1856 ft | 131 kts | 198° |
| 2026-05-07 19:17 | -26.79998 | -65.29463 | 2324 ft | 102 kts | 108° |
| 2026-05-07 19:17 | -26.80199 | -65.28469 | 1932 ft | 149 kts | 104° |
| 2026-05-07 19:17 | -26.79873 | -65.27695 | 1917 ft | 141 kts | 336° |
| 2026-05-07 19:17 | -26.79485 | -65.28529 | 1801 ft | 142 kts | 268° |
| 2026-05-07 19:18 | -26.79560 | -65.29059 | 1716 ft | 82 kts | 270° |
| 2026-05-07 19:18 | -26.79578 | -65.29789 | 1860 ft | 102 kts | 286° |
| 2026-05-07 19:18 | -26.78984 | -65.30148 | 2154 ft | 110 kts | 17° |
| 2026-05-07 19:18 | -26.78636 | -65.29423 | 2292 ft | 124 kts | 100° |
| 2026-05-07 19:19 | -26.78783 | -65.28388 | 2232 ft | 142 kts | 98° |
| 2026-05-07 19:19 | -26.78853 | -65.27263 | 2213 ft | 147 kts | 92° |
| 2026-05-07 19:19 | -26.79401 | -65.27007 | 2234 ft | 128 kts | 258° |
| 2026-05-07 19:19 | -26.79623 | -65.28069 | 1834 ft | 148 kts | 262° |
| 2026-05-07 19:20 | -26.79532 | -65.28523 | 1698 ft | 14 kts | 75° |
| 2026-05-07 19:20 | -26.79527 | -65.28593 | 1693 ft | 43 kts | 276° |
| 2026-05-07 19:20 | -26.79590 | -65.29126 | 1735 ft | 89 kts | 262° |
| 2026-05-07 19:20 | -26.79792 | -65.29744 | 1945 ft | 91 kts | 214° |
| 2026-05-07 19:21 | -26.79678 | -65.30242 | 2018 ft | 114 kts | 34° |
| 2026-05-07 19:21 | -26.79691 | -65.29333 | 1807 ft | 128 kts | 95° |
| 2026-05-07 19:21 | -26.79739 | -65.28342 | 1872 ft | 108 kts | 53° |
| 2026-05-07 19:21 | -26.79845 | -65.28268 | 1852 ft | 105 kts | 285° |
| 2026-05-07 19:22 | -26.79676 | -65.29140 | 1727 ft | 120 kts | 278° |
| 2026-05-07 19:22 | -26.79820 | -65.29768 | 2326 ft | 62 kts | 254° |
| 2026-05-07 19:22 | -26.79422 | -65.30100 | 2219 ft | 77 kts | 7° |
| 2026-05-07 19:22 | -26.79623 | -65.29640 | 1913 ft | 115 kts | 137° |
| 2026-05-07 19:23 | -26.79867 | -65.28710 | 1845 ft | 119 kts | 101° |
| 2026-05-07 19:23 | -26.79504 | -65.28768 | 1730 ft | 124 kts | 278° |
| 2026-05-07 19:23 | -26.79528 | -65.29501 | 2207 ft | 75 kts | 158° |
| 2026-05-07 19:23 | -26.79660 | -65.29367 | 1734 ft | 0 kts | 281° |